sensor_id;sensor_type;location;lat;lon;timestamp;P1;durP1;ratioP1;P2;durP2;ratioP2
72791;SDS011;60907;53.268;8.764;2023-06-10T00:01:47;7.25;;;2.42;;
72791;SDS011;60907;53.268;8.764;2023-06-10T00:04:13;4.80;;;2.58;;
72791;SDS011;60907;53.268;8.764;2023-06-10T00:09:05;6.45;;;2.53;;
72791;SDS011;60907;53.268;8.764;2023-06-10T00:11:36;6.47;;;2.45;;
72791;SDS011;60907;53.268;8.764;2023-06-10T00:14:02;4.70;;;2.33;;
72791;SDS011;60907;53.268;8.764;2023-06-10T00:16:28;8.00;;;2.63;;
72791;SDS011;60907;53.268;8.764;2023-06-10T00:18:53;7.18;;;2.40;;
72791;SDS011;60907;53.268;8.764;2023-06-10T00:21:32;7.97;;;2.40;;
72791;SDS011;60907;53.268;8.764;2023-06-10T00:24:05;9.23;;;2.70;;
72791;SDS011;60907;53.268;8.764;2023-06-10T00:26:39;8.52;;;2.72;;
72791;SDS011;60907;53.268;8.764;2023-06-10T00:29:05;7.40;;;2.65;;
72791;SDS011;60907;53.268;8.764;2023-06-10T00:31:31;8.63;;;2.78;;
72791;SDS011;60907;53.268;8.764;2023-06-10T00:33:56;5.88;;;2.55;;
72791;SDS011;60907;53.268;8.764;2023-06-10T00:38:49;7.50;;;2.50;;
72791;SDS011;60907;53.268;8.764;2023-06-10T00:41:14;5.28;;;2.58;;
72791;SDS011;60907;53.268;8.764;2023-06-10T00:43:40;9.35;;;3.38;;
72791;SDS011;60907;53.268;8.764;2023-06-10T00:46:05;7.32;;;2.95;;
72791;SDS011;60907;53.268;8.764;2023-06-10T00:48:31;9.68;;;3.05;;
72791;SDS011;60907;53.268;8.764;2023-06-10T00:50:57;8.05;;;3.15;;
72791;SDS011;60907;53.268;8.764;2023-06-10T00:53:23;8.20;;;2.70;;
72791;SDS011;60907;53.268;8.764;2023-06-10T00:55:50;7.85;;;2.70;;
72791;SDS011;60907;53.268;8.764;2023-06-10T00:58:15;7.90;;;2.55;;
72791;SDS011;60907;53.268;8.764;2023-06-10T01:00:41;9.88;;;3.03;;
72791;SDS011;60907;53.268;8.764;2023-06-10T01:03:06;8.18;;;2.85;;
72791;SDS011;60907;53.268;8.764;2023-06-10T01:05:35;7.60;;;3.00;;
72791;SDS011;60907;53.268;8.764;2023-06-10T01:08:03;7.30;;;3.08;;
72791;SDS011;60907;53.268;8.764;2023-06-10T01:10:41;11.00;;;3.25;;
72791;SDS011;60907;53.268;8.764;2023-06-10T01:13:23;7.25;;;2.75;;
72791;SDS011;60907;53.268;8.764;2023-06-10T01:15:53;6.07;;;2.53;;
72791;SDS011;60907;53.268;8.764;2023-06-10T01:18:19;8.38;;;3.55;;
72791;SDS011;60907;53.268;8.764;2023-06-10T01:23:13;9.93;;;3.50;;
72791;SDS011;60907;53.268;8.764;2023-06-10T01:26:01;8.02;;;2.97;;
72791;SDS011;60907;53.268;8.764;2023-06-10T01:31:20;6.93;;;2.92;;
72791;SDS011;60907;53.268;8.764;2023-06-10T01:33:59;8.43;;;3.40;;
72791;SDS011;60907;53.268;8.764;2023-06-10T01:36:25;9.27;;;3.20;;
72791;SDS011;60907;53.268;8.764;2023-06-10T01:38:51;7.60;;;2.97;;
72791;SDS011;60907;53.268;8.764;2023-06-10T01:41:18;12.95;;;3.35;;
72791;SDS011;60907;53.268;8.764;2023-06-10T01:43:46;7.70;;;2.97;;
72791;SDS011;60907;53.268;8.764;2023-06-10T01:46:12;7.20;;;2.85;;
72791;SDS011;60907;53.268;8.764;2023-06-10T01:48:38;10.13;;;3.55;;
72791;SDS011;60907;53.268;8.764;2023-06-10T01:51:04;6.88;;;2.90;;
72791;SDS011;60907;53.268;8.764;2023-06-10T01:53:30;7.28;;;3.47;;
72791;SDS011;60907;53.268;8.764;2023-06-10T01:55:55;6.57;;;2.90;;
72791;SDS011;60907;53.268;8.764;2023-06-10T01:58:21;7.07;;;3.17;;
72791;SDS011;60907;53.268;8.764;2023-06-10T02:00:46;6.75;;;3.08;;
72791;SDS011;60907;53.268;8.764;2023-06-10T02:03:12;8.18;;;3.42;;
72791;SDS011;60907;53.268;8.764;2023-06-10T02:05:38;6.90;;;3.00;;
72791;SDS011;60907;53.268;8.764;2023-06-10T02:08:04;7.28;;;2.78;;
72791;SDS011;60907;53.268;8.764;2023-06-10T02:10:30;8.05;;;3.17;;
72791;SDS011;60907;53.268;8.764;2023-06-10T02:12:55;8.18;;;3.25;;
72791;SDS011;60907;53.268;8.764;2023-06-10T02:15:21;6.05;;;3.42;;
72791;SDS011;60907;53.268;8.764;2023-06-10T02:17:46;8.82;;;3.70;;
72791;SDS011;60907;53.268;8.764;2023-06-10T02:20:14;8.40;;;3.38;;
72791;SDS011;60907;53.268;8.764;2023-06-10T02:22:39;8.63;;;3.45;;
72791;SDS011;60907;53.268;8.764;2023-06-10T02:25:05;8.98;;;3.33;;
72791;SDS011;60907;53.268;8.764;2023-06-10T02:27:31;9.70;;;3.72;;
72791;SDS011;60907;53.268;8.764;2023-06-10T02:29:57;10.20;;;3.72;;
72791;SDS011;60907;53.268;8.764;2023-06-10T02:32:22;10.88;;;4.07;;
72791;SDS011;60907;53.268;8.764;2023-06-10T02:34:48;9.70;;;3.42;;
72791;SDS011;60907;53.268;8.764;2023-06-10T02:37:16;7.15;;;3.03;;
72791;SDS011;60907;53.268;8.764;2023-06-10T02:39:42;8.48;;;3.63;;
72791;SDS011;60907;53.268;8.764;2023-06-10T02:42:08;6.65;;;3.50;;
72791;SDS011;60907;53.268;8.764;2023-06-10T02:44:33;6.95;;;3.42;;
72791;SDS011;60907;53.268;8.764;2023-06-10T02:46:59;7.55;;;2.65;;
72791;SDS011;60907;53.268;8.764;2023-06-10T02:49:25;10.15;;;3.35;;
72791;SDS011;60907;53.268;8.764;2023-06-10T02:51:52;6.55;;;2.67;;
72791;SDS011;60907;53.268;8.764;2023-06-10T02:54:19;8.55;;;3.10;;
72791;SDS011;60907;53.268;8.764;2023-06-10T02:56:47;8.73;;;3.05;;
72791;SDS011;60907;53.268;8.764;2023-06-10T02:59:13;7.55;;;3.40;;
72791;SDS011;60907;53.268;8.764;2023-06-10T03:01:39;9.57;;;3.22;;
72791;SDS011;60907;53.268;8.764;2023-06-10T03:04:04;8.43;;;3.67;;
72791;SDS011;60907;53.268;8.764;2023-06-10T03:06:30;7.22;;;3.67;;
72791;SDS011;60907;53.268;8.764;2023-06-10T03:08:58;5.47;;;2.95;;
72791;SDS011;60907;53.268;8.764;2023-06-10T03:11:24;8.57;;;3.78;;
72791;SDS011;60907;53.268;8.764;2023-06-10T03:13:50;8.82;;;3.58;;
72791;SDS011;60907;53.268;8.764;2023-06-10T03:16:17;7.45;;;3.22;;
72791;SDS011;60907;53.268;8.764;2023-06-10T03:18:43;7.43;;;3.60;;
72791;SDS011;60907;53.268;8.764;2023-06-10T03:21:08;6.57;;;3.05;;
72791;SDS011;60907;53.268;8.764;2023-06-10T03:23:34;8.07;;;4.17;;
72791;SDS011;60907;53.268;8.764;2023-06-10T03:25:59;9.40;;;3.60;;
72791;SDS011;60907;53.268;8.764;2023-06-10T03:28:25;7.40;;;3.58;;
72791;SDS011;60907;53.268;8.764;2023-06-10T03:30:51;8.85;;;3.65;;
72791;SDS011;60907;53.268;8.764;2023-06-10T03:33:16;8.93;;;3.25;;
72791;SDS011;60907;53.268;8.764;2023-06-10T03:35:43;9.52;;;3.13;;
72791;SDS011;60907;53.268;8.764;2023-06-10T03:38:08;6.60;;;3.03;;
72791;SDS011;60907;53.268;8.764;2023-06-10T03:40:34;7.38;;;3.15;;
72791;SDS011;60907;53.268;8.764;2023-06-10T03:43:00;7.32;;;3.55;;
72791;SDS011;60907;53.268;8.764;2023-06-10T03:45:25;9.50;;;3.38;;
72791;SDS011;60907;53.268;8.764;2023-06-10T03:47:53;6.32;;;3.75;;
72791;SDS011;60907;53.268;8.764;2023-06-10T03:50:18;7.43;;;2.70;;
72791;SDS011;60907;53.268;8.764;2023-06-10T03:52:44;6.15;;;2.55;;
72791;SDS011;60907;53.268;8.764;2023-06-10T03:55:10;7.88;;;2.70;;
72791;SDS011;60907;53.268;8.764;2023-06-10T03:57:38;8.07;;;3.05;;
72791;SDS011;60907;53.268;8.764;2023-06-10T04:00:04;6.30;;;2.65;;
72791;SDS011;60907;53.268;8.764;2023-06-10T04:02:37;6.28;;;2.85;;
72791;SDS011;60907;53.268;8.764;2023-06-10T04:05:06;6.35;;;2.80;;
72791;SDS011;60907;53.268;8.764;2023-06-10T04:07:32;5.70;;;2.63;;
72791;SDS011;60907;53.268;8.764;2023-06-10T04:09:59;8.07;;;2.50;;
72791;SDS011;60907;53.268;8.764;2023-06-10T04:12:24;8.23;;;2.65;;
72791;SDS011;60907;53.268;8.764;2023-06-10T04:14:50;5.43;;;2.73;;
72791;SDS011;60907;53.268;8.764;2023-06-10T04:17:16;7.10;;;2.50;;
72791;SDS011;60907;53.268;8.764;2023-06-10T04:19:41;5.82;;;2.45;;
72791;SDS011;60907;53.268;8.764;2023-06-10T04:22:07;5.15;;;2.45;;
72791;SDS011;60907;53.268;8.764;2023-06-10T04:24:32;5.13;;;2.20;;
72791;SDS011;60907;53.268;8.764;2023-06-10T04:26:58;6.30;;;2.97;;
72791;SDS011;60907;53.268;8.764;2023-06-10T04:29:23;6.40;;;1.90;;
72791;SDS011;60907;53.268;8.764;2023-06-10T04:31:49;5.68;;;2.13;;
72791;SDS011;60907;53.268;8.764;2023-06-10T04:34:14;5.88;;;2.15;;
72791;SDS011;60907;53.268;8.764;2023-06-10T04:36:39;4.82;;;2.33;;
72791;SDS011;60907;53.268;8.764;2023-06-10T04:39:05;5.18;;;1.90;;
72791;SDS011;60907;53.268;8.764;2023-06-10T04:41:30;10.52;;;2.40;;
72791;SDS011;60907;53.268;8.764;2023-06-10T04:43:56;7.03;;;2.33;;
72791;SDS011;60907;53.268;8.764;2023-06-10T04:46:22;3.63;;;1.92;;
72791;SDS011;60907;53.268;8.764;2023-06-10T04:48:48;6.35;;;2.13;;
72791;SDS011;60907;53.268;8.764;2023-06-10T04:51:13;6.68;;;2.25;;
72791;SDS011;60907;53.268;8.764;2023-06-10T04:53:39;5.32;;;1.75;;
72791;SDS011;60907;53.268;8.764;2023-06-10T04:56:04;5.90;;;2.17;;
72791;SDS011;60907;53.268;8.764;2023-06-10T04:58:30;4.15;;;1.80;;
72791;SDS011;60907;53.268;8.764;2023-06-10T05:00:55;8.95;;;2.28;;
72791;SDS011;60907;53.268;8.764;2023-06-10T05:03:21;8.63;;;2.13;;
72791;SDS011;60907;53.268;8.764;2023-06-10T05:05:46;7.30;;;2.10;;
72791;SDS011;60907;53.268;8.764;2023-06-10T05:08:11;5.67;;;2.30;;
72791;SDS011;60907;53.268;8.764;2023-06-10T05:10:37;6.22;;;2.70;;
72791;SDS011;60907;53.268;8.764;2023-06-10T05:13:02;10.27;;;2.78;;
72791;SDS011;60907;53.268;8.764;2023-06-10T05:15:28;5.45;;;2.95;;
72791;SDS011;60907;53.268;8.764;2023-06-10T05:17:55;6.20;;;1.98;;
72791;SDS011;60907;53.268;8.764;2023-06-10T05:20:24;11.05;;;3.00;;
72791;SDS011;60907;53.268;8.764;2023-06-10T05:22:50;8.27;;;3.08;;
72791;SDS011;60907;53.268;8.764;2023-06-10T05:25:16;8.20;;;3.63;;
72791;SDS011;60907;53.268;8.764;2023-06-10T05:27:41;6.28;;;3.45;;
72791;SDS011;60907;53.268;8.764;2023-06-10T05:30:08;7.05;;;3.50;;
72791;SDS011;60907;53.268;8.764;2023-06-10T05:35:00;7.47;;;3.43;;
72791;SDS011;60907;53.268;8.764;2023-06-10T05:37:26;9.52;;;3.92;;
72791;SDS011;60907;53.268;8.764;2023-06-10T05:39:51;8.02;;;3.85;;
72791;SDS011;60907;53.268;8.764;2023-06-10T05:42:17;6.95;;;4.25;;
72791;SDS011;60907;53.268;8.764;2023-06-10T05:44:42;9.30;;;4.78;;
72791;SDS011;60907;53.268;8.764;2023-06-10T05:47:08;11.70;;;4.40;;
72791;SDS011;60907;53.268;8.764;2023-06-10T05:49:33;10.10;;;4.95;;
72791;SDS011;60907;53.268;8.764;2023-06-10T05:51:59;7.20;;;4.38;;
72791;SDS011;60907;53.268;8.764;2023-06-10T05:54:25;9.18;;;4.75;;
72791;SDS011;60907;53.268;8.764;2023-06-10T05:56:51;10.93;;;4.78;;
72791;SDS011;60907;53.268;8.764;2023-06-10T05:59:16;9.53;;;5.07;;
72791;SDS011;60907;53.268;8.764;2023-06-10T06:01:42;9.02;;;5.07;;
72791;SDS011;60907;53.268;8.764;2023-06-10T06:04:07;12.20;;;6.13;;
72791;SDS011;60907;53.268;8.764;2023-06-10T06:06:32;10.67;;;5.60;;
72791;SDS011;60907;53.268;8.764;2023-06-10T06:08:58;10.40;;;5.47;;
72791;SDS011;60907;53.268;8.764;2023-06-10T06:11:23;10.52;;;6.25;;
72791;SDS011;60907;53.268;8.764;2023-06-10T06:13:50;12.85;;;5.57;;
72791;SDS011;60907;53.268;8.764;2023-06-10T06:16:16;9.23;;;5.60;;
72791;SDS011;60907;53.268;8.764;2023-06-10T06:18:43;10.38;;;5.63;;
72791;SDS011;60907;53.268;8.764;2023-06-10T06:21:08;14.85;;;6.25;;
72791;SDS011;60907;53.268;8.764;2023-06-10T06:23:34;12.52;;;5.85;;
72791;SDS011;60907;53.268;8.764;2023-06-10T06:25:59;8.82;;;5.55;;
72791;SDS011;60907;53.268;8.764;2023-06-10T06:28:25;11.48;;;6.18;;
72791;SDS011;60907;53.268;8.764;2023-06-10T06:30:54;12.73;;;6.32;;
72791;SDS011;60907;53.268;8.764;2023-06-10T06:33:22;12.05;;;6.82;;
72791;SDS011;60907;53.268;8.764;2023-06-10T06:35:47;11.55;;;7.13;;
72791;SDS011;60907;53.268;8.764;2023-06-10T06:38:13;13.50;;;6.95;;
72791;SDS011;60907;53.268;8.764;2023-06-10T06:40:38;13.13;;;6.30;;
72791;SDS011;60907;53.268;8.764;2023-06-10T06:43:04;11.00;;;5.90;;
72791;SDS011;60907;53.268;8.764;2023-06-10T06:45:29;11.80;;;6.72;;
72791;SDS011;60907;53.268;8.764;2023-06-10T06:47:55;11.57;;;6.25;;
72791;SDS011;60907;53.268;8.764;2023-06-10T06:50:21;10.68;;;6.43;;
72791;SDS011;60907;53.268;8.764;2023-06-10T06:52:46;10.40;;;6.88;;
72791;SDS011;60907;53.268;8.764;2023-06-10T06:55:12;12.38;;;7.00;;
72791;SDS011;60907;53.268;8.764;2023-06-10T06:57:37;13.57;;;7.25;;
72791;SDS011;60907;53.268;8.764;2023-06-10T07:00:03;13.65;;;6.68;;
72791;SDS011;60907;53.268;8.764;2023-06-10T07:02:29;12.70;;;6.90;;
72791;SDS011;60907;53.268;8.764;2023-06-10T07:04:57;9.57;;;6.32;;
72791;SDS011;60907;53.268;8.764;2023-06-10T07:07:23;13.40;;;7.00;;
72791;SDS011;60907;53.268;8.764;2023-06-10T07:09:49;10.23;;;6.28;;
72791;SDS011;60907;53.268;8.764;2023-06-10T07:12:15;11.48;;;7.15;;
72791;SDS011;60907;53.268;8.764;2023-06-10T07:14:40;11.70;;;5.97;;
72791;SDS011;60907;53.268;8.764;2023-06-10T07:17:06;10.63;;;5.90;;
72791;SDS011;60907;53.268;8.764;2023-06-10T07:19:31;13.20;;;6.28;;
72791;SDS011;60907;53.268;8.764;2023-06-10T07:21:56;12.53;;;5.90;;
72791;SDS011;60907;53.268;8.764;2023-06-10T07:24:22;8.63;;;5.53;;
72791;SDS011;60907;53.268;8.764;2023-06-10T07:26:47;13.00;;;5.95;;
72791;SDS011;60907;53.268;8.764;2023-06-10T07:29:13;13.45;;;7.30;;
72791;SDS011;60907;53.268;8.764;2023-06-10T07:31:38;11.80;;;6.88;;
72791;SDS011;60907;53.268;8.764;2023-06-10T07:34:03;12.85;;;6.38;;
72791;SDS011;60907;53.268;8.764;2023-06-10T07:36:29;10.50;;;6.15;;
72791;SDS011;60907;53.268;8.764;2023-06-10T07:38:54;12.55;;;6.80;;
72791;SDS011;60907;53.268;8.764;2023-06-10T07:41:20;10.70;;;6.15;;
72791;SDS011;60907;53.268;8.764;2023-06-10T07:46:12;10.00;;;5.07;;
72791;SDS011;60907;53.268;8.764;2023-06-10T07:48:38;12.68;;;5.50;;
72791;SDS011;60907;53.268;8.764;2023-06-10T07:51:03;10.18;;;5.78;;
72791;SDS011;60907;53.268;8.764;2023-06-10T07:53:28;8.80;;;4.83;;
72791;SDS011;60907;53.268;8.764;2023-06-10T07:55:55;9.18;;;4.28;;
72791;SDS011;60907;53.268;8.764;2023-06-10T07:58:20;7.82;;;4.85;;
72791;SDS011;60907;53.268;8.764;2023-06-10T08:00:47;10.55;;;4.75;;
72791;SDS011;60907;53.268;8.764;2023-06-10T08:03:13;12.00;;;4.60;;
72791;SDS011;60907;53.268;8.764;2023-06-10T08:05:39;8.80;;;4.60;;
72791;SDS011;60907;53.268;8.764;2023-06-10T08:08:04;8.35;;;4.60;;
72791;SDS011;60907;53.268;8.764;2023-06-10T08:10:30;7.90;;;3.70;;
72791;SDS011;60907;53.268;8.764;2023-06-10T08:12:55;8.18;;;3.70;;
72791;SDS011;60907;53.268;8.764;2023-06-10T08:15:21;10.05;;;4.13;;
72791;SDS011;60907;53.268;8.764;2023-06-10T08:17:46;6.80;;;3.58;;
72791;SDS011;60907;53.268;8.764;2023-06-10T08:20:12;8.55;;;3.80;;
72791;SDS011;60907;53.268;8.764;2023-06-10T08:22:37;6.67;;;3.80;;
72791;SDS011;60907;53.268;8.764;2023-06-10T08:25:03;7.55;;;3.95;;
72791;SDS011;60907;53.268;8.764;2023-06-10T08:27:28;13.63;;;3.97;;
72791;SDS011;60907;53.268;8.764;2023-06-10T08:29:54;8.40;;;3.55;;
72791;SDS011;60907;53.268;8.764;2023-06-10T08:32:19;8.77;;;3.60;;
72791;SDS011;60907;53.268;8.764;2023-06-10T08:34:45;13.98;;;3.20;;
72791;SDS011;60907;53.268;8.764;2023-06-10T08:37:10;7.73;;;3.90;;
72791;SDS011;60907;53.268;8.764;2023-06-10T08:39:36;7.43;;;3.60;;
72791;SDS011;60907;53.268;8.764;2023-06-10T08:44:49;8.50;;;3.10;;
72791;SDS011;60907;53.268;8.764;2023-06-10T08:47:24;6.10;;;2.95;;
72791;SDS011;60907;53.268;8.764;2023-06-10T08:49:50;6.45;;;2.50;;
72791;SDS011;60907;53.268;8.764;2023-06-10T08:52:17;5.80;;;2.45;;
72791;SDS011;60907;53.268;8.764;2023-06-10T08:54:48;11.88;;;2.63;;
72791;SDS011;60907;53.268;8.764;2023-06-10T08:57:17;3.63;;;2.03;;
72791;SDS011;60907;53.268;8.764;2023-06-10T08:59:45;6.60;;;2.95;;
72791;SDS011;60907;53.268;8.764;2023-06-10T09:02:11;5.78;;;2.28;;
72791;SDS011;60907;53.268;8.764;2023-06-10T09:04:37;6.95;;;2.08;;
72791;SDS011;60907;53.268;8.764;2023-06-10T09:07:02;7.25;;;2.42;;
72791;SDS011;60907;53.268;8.764;2023-06-10T09:09:29;5.38;;;2.05;;
72791;SDS011;60907;53.268;8.764;2023-06-10T09:11:57;4.28;;;2.03;;
72791;SDS011;60907;53.268;8.764;2023-06-10T09:14:23;5.78;;;2.40;;
72791;SDS011;60907;53.268;8.764;2023-06-10T09:16:49;5.05;;;2.20;;
72791;SDS011;60907;53.268;8.764;2023-06-10T09:19:15;6.97;;;2.00;;
72791;SDS011;60907;53.268;8.764;2023-06-10T09:21:41;5.60;;;2.05;;
72791;SDS011;60907;53.268;8.764;2023-06-10T09:24:06;4.20;;;2.13;;
72791;SDS011;60907;53.268;8.764;2023-06-10T09:26:33;6.65;;;2.35;;
72791;SDS011;60907;53.268;8.764;2023-06-10T09:29:05;6.53;;;2.25;;
72791;SDS011;60907;53.268;8.764;2023-06-10T09:31:31;5.60;;;1.85;;
72791;SDS011;60907;53.268;8.764;2023-06-10T09:34:12;5.03;;;2.00;;
72791;SDS011;60907;53.268;8.764;2023-06-10T09:36:39;3.25;;;1.75;;
72791;SDS011;60907;53.268;8.764;2023-06-10T09:39:05;5.75;;;1.67;;
72791;SDS011;60907;53.268;8.764;2023-06-10T09:41:41;3.45;;;1.42;;
72791;SDS011;60907;53.268;8.764;2023-06-10T09:46:39;5.85;;;2.03;;
72791;SDS011;60907;53.268;8.764;2023-06-10T09:49:05;6.10;;;1.83;;
72791;SDS011;60907;53.268;8.764;2023-06-10T09:51:30;3.58;;;1.48;;
72791;SDS011;60907;53.268;8.764;2023-06-10T09:53:56;5.18;;;2.03;;
72791;SDS011;60907;53.268;8.764;2023-06-10T09:56:32;5.28;;;2.13;;
72791;SDS011;60907;53.268;8.764;2023-06-10T09:58:58;4.82;;;1.38;;
72791;SDS011;60907;53.268;8.764;2023-06-10T10:01:23;4.20;;;1.80;;
72791;SDS011;60907;53.268;8.764;2023-06-10T10:03:49;4.65;;;1.52;;
72791;SDS011;60907;53.268;8.764;2023-06-10T10:06:15;3.60;;;1.73;;
72791;SDS011;60907;53.268;8.764;2023-06-10T10:08:42;5.57;;;1.90;;
72791;SDS011;60907;53.268;8.764;2023-06-10T10:11:08;4.80;;;1.95;;
72791;SDS011;60907;53.268;8.764;2023-06-10T10:13:34;3.72;;;1.90;;
72791;SDS011;60907;53.268;8.764;2023-06-10T10:16:01;3.47;;;1.80;;
72791;SDS011;60907;53.268;8.764;2023-06-10T10:18:29;5.32;;;1.85;;
72791;SDS011;60907;53.268;8.764;2023-06-10T10:20:56;132.77;;;14.15;;
72791;SDS011;60907;53.268;8.764;2023-06-10T10:23:28;10.73;;;2.35;;
72791;SDS011;60907;53.268;8.764;2023-06-10T10:25:56;3.88;;;1.75;;
72791;SDS011;60907;53.268;8.764;2023-06-10T10:28:24;4.00;;;1.73;;
72791;SDS011;60907;53.268;8.764;2023-06-10T10:30:53;7.90;;;2.03;;
72791;SDS011;60907;53.268;8.764;2023-06-10T10:33:20;4.35;;;1.50;;
72791;SDS011;60907;53.268;8.764;2023-06-10T10:35:48;3.25;;;1.60;;
72791;SDS011;60907;53.268;8.764;2023-06-10T10:38:14;5.43;;;1.88;;
72791;SDS011;60907;53.268;8.764;2023-06-10T10:40:40;5.90;;;2.22;;
72791;SDS011;60907;53.268;8.764;2023-06-10T10:43:06;6.72;;;2.38;;
72791;SDS011;60907;53.268;8.764;2023-06-10T10:45:35;4.63;;;2.05;;
72791;SDS011;60907;53.268;8.764;2023-06-10T10:48:04;8.85;;;2.30;;
72791;SDS011;60907;53.268;8.764;2023-06-10T10:50:31;4.22;;;1.55;;
72791;SDS011;60907;53.268;8.764;2023-06-10T10:53:03;6.32;;;1.70;;
72791;SDS011;60907;53.268;8.764;2023-06-10T10:55:30;5.28;;;1.58;;
72791;SDS011;60907;53.268;8.764;2023-06-10T10:58:02;5.63;;;1.45;;
72791;SDS011;60907;53.268;8.764;2023-06-10T11:00:29;4.45;;;2.15;;
72791;SDS011;60907;53.268;8.764;2023-06-10T11:02:59;7.03;;;3.28;;
72791;SDS011;60907;53.268;8.764;2023-06-10T11:05:35;7.25;;;3.08;;
72791;SDS011;60907;53.268;8.764;2023-06-10T11:08:03;6.72;;;2.55;;
72791;SDS011;60907;53.268;8.764;2023-06-10T11:10:32;5.97;;;1.80;;
72791;SDS011;60907;53.268;8.764;2023-06-10T11:13:20;6.75;;;1.90;;
72791;SDS011;60907;53.268;8.764;2023-06-10T11:15:47;3.15;;;1.60;;
72791;SDS011;60907;53.268;8.764;2023-06-10T11:18:18;6.80;;;1.35;;
72791;SDS011;60907;53.268;8.764;2023-06-10T11:20:51;3.85;;;1.50;;
72791;SDS011;60907;53.268;8.764;2023-06-10T11:31:27;4.13;;;1.55;;
72791;SDS011;60907;53.268;8.764;2023-06-10T11:33:57;5.22;;;1.88;;
72791;SDS011;60907;53.268;8.764;2023-06-10T11:36:25;3.88;;;1.70;;
72791;SDS011;60907;53.268;8.764;2023-06-10T11:38:53;3.10;;;1.48;;
72791;SDS011;60907;53.268;8.764;2023-06-10T11:41:20;5.03;;;1.67;;
72791;SDS011;60907;53.268;8.764;2023-06-10T11:43:46;4.75;;;1.63;;
72791;SDS011;60907;53.268;8.764;2023-06-10T11:46:12;5.35;;;1.42;;
72791;SDS011;60907;53.268;8.764;2023-06-10T11:48:38;3.38;;;1.33;;
72791;SDS011;60907;53.268;8.764;2023-06-10T11:51:06;6.53;;;1.63;;
72791;SDS011;60907;53.268;8.764;2023-06-10T11:53:32;4.63;;;1.58;;
72791;SDS011;60907;53.268;8.764;2023-06-10T11:55:58;4.22;;;1.25;;
72791;SDS011;60907;53.268;8.764;2023-06-10T11:58:23;4.13;;;1.50;;
72791;SDS011;60907;53.268;8.764;2023-06-10T12:00:50;2.42;;;1.33;;
72791;SDS011;60907;53.268;8.764;2023-06-10T12:03:18;2.95;;;1.70;;
72791;SDS011;60907;53.268;8.764;2023-06-10T12:06:03;4.97;;;1.58;;
72791;SDS011;60907;53.268;8.764;2023-06-10T12:08:30;4.82;;;1.50;;
72791;SDS011;60907;53.268;8.764;2023-06-10T12:10:56;4.28;;;1.40;;
72791;SDS011;60907;53.268;8.764;2023-06-10T12:13:22;5.80;;;1.45;;
72791;SDS011;60907;53.268;8.764;2023-06-10T12:15:48;4.13;;;1.50;;
72791;SDS011;60907;53.268;8.764;2023-06-10T12:18:21;5.38;;;1.65;;
72791;SDS011;60907;53.268;8.764;2023-06-10T12:20:50;2.88;;;1.55;;
72791;SDS011;60907;53.268;8.764;2023-06-10T12:23:16;6.30;;;1.73;;
72791;SDS011;60907;53.268;8.764;2023-06-10T12:25:53;3.88;;;1.70;;
72791;SDS011;60907;53.268;8.764;2023-06-10T12:28:25;3.00;;;1.60;;
72791;SDS011;60907;53.268;8.764;2023-06-10T12:30:51;4.53;;;1.02;;
72791;SDS011;60907;53.268;8.764;2023-06-10T12:33:30;3.20;;;1.20;;
72791;SDS011;60907;53.268;8.764;2023-06-10T12:35:56;4.30;;;1.30;;
72791;SDS011;60907;53.268;8.764;2023-06-10T12:38:21;2.42;;;1.33;;
72791;SDS011;60907;53.268;8.764;2023-06-10T12:40:49;4.05;;;1.25;;
72791;SDS011;60907;53.268;8.764;2023-06-10T12:43:24;3.78;;;1.30;;
72791;SDS011;60907;53.268;8.764;2023-06-10T12:45:50;3.10;;;1.42;;
72791;SDS011;60907;53.268;8.764;2023-06-10T12:48:22;3.20;;;1.48;;
72791;SDS011;60907;53.268;8.764;2023-06-10T12:50:52;4.85;;;1.35;;
72791;SDS011;60907;53.268;8.764;2023-06-10T12:53:19;3.13;;;1.52;;
72791;SDS011;60907;53.268;8.764;2023-06-10T12:55:45;2.65;;;1.30;;
72791;SDS011;60907;53.268;8.764;2023-06-10T12:58:10;3.92;;;1.35;;
72791;SDS011;60907;53.268;8.764;2023-06-10T13:00:36;5.50;;;1.70;;
72791;SDS011;60907;53.268;8.764;2023-06-10T13:03:02;4.15;;;1.10;;
72791;SDS011;60907;53.268;8.764;2023-06-10T13:05:28;3.13;;;1.40;;
72791;SDS011;60907;53.268;8.764;2023-06-10T13:07:55;2.78;;;1.42;;
72791;SDS011;60907;53.268;8.764;2023-06-10T13:10:21;3.38;;;1.80;;
72791;SDS011;60907;53.268;8.764;2023-06-10T13:12:47;3.00;;;1.38;;
72791;SDS011;60907;53.268;8.764;2023-06-10T13:15:12;4.22;;;1.63;;
72791;SDS011;60907;53.268;8.764;2023-06-10T13:17:38;2.92;;;1.70;;
72791;SDS011;60907;53.268;8.764;2023-06-10T13:20:05;4.57;;;1.42;;
72791;SDS011;60907;53.268;8.764;2023-06-10T13:22:32;4.35;;;1.67;;
72791;SDS011;60907;53.268;8.764;2023-06-10T13:25:03;4.32;;;1.90;;
72791;SDS011;60907;53.268;8.764;2023-06-10T13:27:30;3.85;;;1.52;;
72791;SDS011;60907;53.268;8.764;2023-06-10T13:29:55;2.90;;;1.90;;
72791;SDS011;60907;53.268;8.764;2023-06-10T13:32:21;2.65;;;1.40;;
72791;SDS011;60907;53.268;8.764;2023-06-10T13:34:46;2.05;;;1.20;;
72791;SDS011;60907;53.268;8.764;2023-06-10T13:37:12;4.53;;;2.10;;
72791;SDS011;60907;53.268;8.764;2023-06-10T13:39:38;3.33;;;1.58;;
72791;SDS011;60907;53.268;8.764;2023-06-10T13:42:03;2.38;;;1.42;;
72791;SDS011;60907;53.268;8.764;2023-06-10T13:44:29;4.05;;;1.60;;
72791;SDS011;60907;53.268;8.764;2023-06-10T13:46:58;3.92;;;1.88;;
72791;SDS011;60907;53.268;8.764;2023-06-10T13:49:24;6.43;;;1.60;;
72791;SDS011;60907;53.268;8.764;2023-06-10T13:51:50;4.28;;;1.60;;
72791;SDS011;60907;53.268;8.764;2023-06-10T13:54:15;3.90;;;2.00;;
72791;SDS011;60907;53.268;8.764;2023-06-10T13:56:40;4.10;;;1.70;;
72791;SDS011;60907;53.268;8.764;2023-06-10T13:59:06;3.53;;;2.15;;
72791;SDS011;60907;53.268;8.764;2023-06-10T14:01:31;3.80;;;1.73;;
72791;SDS011;60907;53.268;8.764;2023-06-10T14:03:57;3.28;;;1.95;;
72791;SDS011;60907;53.268;8.764;2023-06-10T14:06:22;4.63;;;2.03;;
72791;SDS011;60907;53.268;8.764;2023-06-10T14:08:48;4.85;;;2.38;;
72791;SDS011;60907;53.268;8.764;2023-06-10T14:11:13;4.13;;;2.30;;
72791;SDS011;60907;53.268;8.764;2023-06-10T14:13:39;3.83;;;1.95;;
72791;SDS011;60907;53.268;8.764;2023-06-10T14:16:05;4.47;;;2.33;;
72791;SDS011;60907;53.268;8.764;2023-06-10T14:18:30;5.75;;;2.50;;
72791;SDS011;60907;53.268;8.764;2023-06-10T14:20:56;4.90;;;2.33;;
72791;SDS011;60907;53.268;8.764;2023-06-10T14:23:21;6.45;;;2.33;;
72791;SDS011;60907;53.268;8.764;2023-06-10T14:25:47;4.27;;;2.27;;
72791;SDS011;60907;53.268;8.764;2023-06-10T14:28:12;3.63;;;2.40;;
72791;SDS011;60907;53.268;8.764;2023-06-10T14:30:37;2.67;;;2.30;;
72791;SDS011;60907;53.268;8.764;2023-06-10T14:33:09;5.38;;;3.10;;
72791;SDS011;60907;53.268;8.764;2023-06-10T14:35:34;5.25;;;2.35;;
72791;SDS011;60907;53.268;8.764;2023-06-10T14:38:00;41.67;;;7.60;;
72791;SDS011;60907;53.268;8.764;2023-06-10T14:40:25;9.70;;;3.60;;
72791;SDS011;60907;53.268;8.764;2023-06-10T14:42:53;5.15;;;2.85;;
72791;SDS011;60907;53.268;8.764;2023-06-10T14:45:19;10.68;;;3.80;;
72791;SDS011;60907;53.268;8.764;2023-06-10T14:47:44;3.58;;;2.38;;
72791;SDS011;60907;53.268;8.764;2023-06-10T14:50:12;3.65;;;2.90;;
72791;SDS011;60907;53.268;8.764;2023-06-10T14:52:37;6.07;;;2.55;;
72791;SDS011;60907;53.268;8.764;2023-06-10T14:55:03;5.45;;;3.03;;
72791;SDS011;60907;53.268;8.764;2023-06-10T14:57:28;5.15;;;2.92;;
72791;SDS011;60907;53.268;8.764;2023-06-10T14:59:54;4.60;;;2.78;;
72791;SDS011;60907;53.268;8.764;2023-06-10T15:02:21;3.45;;;2.83;;
72791;SDS011;60907;53.268;8.764;2023-06-10T15:04:47;4.13;;;2.55;;
72791;SDS011;60907;53.268;8.764;2023-06-10T15:07:12;5.72;;;2.80;;
72791;SDS011;60907;53.268;8.764;2023-06-10T15:09:40;4.63;;;2.95;;
72791;SDS011;60907;53.268;8.764;2023-06-10T15:12:05;5.03;;;2.90;;